createdAt,value
2022-12-11T00:00:40.131Z,-2.90
2022-12-11T00:03:14.129Z,-2.90
2022-12-11T00:05:43.305Z,-2.80
2022-12-11T00:08:10.369Z,-2.70
2022-12-11T00:10:38.046Z,-2.70
2022-12-11T00:13:05.624Z,-2.80
2022-12-11T00:15:32.819Z,-2.80
2022-12-11T00:17:59.712Z,-2.90
2022-12-11T00:20:27.227Z,-2.90
2022-12-11T00:22:54.110Z,-2.90
2022-12-11T00:25:21.230Z,-2.90
2022-12-11T00:27:48.346Z,-2.90
2022-12-11T00:30:15.596Z,-2.90
2022-12-11T00:32:44.181Z,-2.90
2022-12-11T00:35:11.592Z,-2.80
2022-12-11T00:37:38.776Z,-2.80
2022-12-11T00:40:06.217Z,-2.80
2022-12-11T00:42:33.142Z,-2.90
2022-12-11T00:45:00.067Z,-2.80
2022-12-11T00:47:27.055Z,-2.80
2022-12-11T00:49:53.905Z,-2.90
2022-12-11T00:52:20.825Z,-2.80
2022-12-11T00:54:47.741Z,-2.90
2022-12-11T00:57:14.625Z,-2.90
2022-12-11T00:59:41.500Z,-2.90
2022-12-11T01:02:08.428Z,-2.90
2022-12-11T01:04:36.292Z,-2.90
2022-12-11T01:07:03.329Z,-3.00
2022-12-11T01:09:48.498Z,-2.90
2022-12-11T01:12:15.508Z,-3.00
2022-12-11T01:14:42.464Z,-2.90
2022-12-11T01:17:12.002Z,-2.90
2022-12-11T01:19:39.036Z,-2.90
2022-12-11T01:22:06.013Z,-3.00
2022-12-11T01:24:34.966Z,-3.00
2022-12-11T01:27:02.538Z,-3.00
2022-12-11T01:29:29.396Z,-3.00
2022-12-11T01:31:56.323Z,-2.90
2022-12-11T01:34:23.237Z,-2.90
2022-12-11T01:36:52.762Z,-3.00
2022-12-11T01:39:19.712Z,-3.00
2022-12-11T01:41:46.943Z,-3.00
2022-12-11T01:44:16.586Z,-3.00
2022-12-11T01:46:43.928Z,-3.00
2022-12-11T01:49:15.228Z,-3.00
2022-12-11T01:52:01.351Z,-2.90
2022-12-11T01:54:29.348Z,-2.90
2022-12-11T01:57:01.201Z,-2.80
2022-12-11T01:59:30.976Z,-2.80
2022-12-11T02:02:15.632Z,-2.80
2022-12-11T02:04:44.528Z,-2.80
2022-12-11T02:07:11.434Z,-2.90
2022-12-11T02:09:40.225Z,-2.90
2022-12-11T02:12:28.413Z,-2.90
2022-12-11T02:15:21.340Z,-3.00
2022-12-11T02:18:11.802Z,-3.00
2022-12-11T02:20:48.023Z,-2.90
2022-12-11T02:23:47.489Z,-3.00
2022-12-11T02:27:11.498Z,-3.00
2022-12-11T02:29:56.243Z,-3.10
2022-12-11T02:32:28.902Z,-3.00
2022-12-11T02:35:31.089Z,-3.00
2022-12-11T02:38:22.770Z,-3.10
2022-12-11T02:40:52.145Z,-3.10
2022-12-11T02:43:20.335Z,-3.10
2022-12-11T02:45:48.138Z,-3.10
2022-12-11T02:48:16.342Z,-3.10
2022-12-11T02:50:47.407Z,-3.10
2022-12-11T02:53:18.727Z,-3.10
2022-12-11T02:55:48.026Z,-3.00
2022-12-11T02:58:19.493Z,-3.10
2022-12-11T03:00:47.144Z,-3.10
2022-12-11T03:03:14.642Z,-3.20
2022-12-11T03:05:43.124Z,-3.20
2022-12-11T03:08:10.406Z,-3.20
2022-12-11T03:10:37.381Z,-3.10
2022-12-11T03:13:04.996Z,-3.10
2022-12-11T03:15:49.556Z,-3.10
2022-12-11T03:18:31.175Z,-3.10
2022-12-11T03:21:09.454Z,-3.20
2022-12-11T03:23:44.244Z,-3.20
2022-12-11T03:26:15.587Z,-3.10
2022-12-11T03:28:58.556Z,-3.10
2022-12-11T03:31:43.664Z,-3.20
2022-12-11T03:34:58.429Z,-3.10
2022-12-11T03:37:28.904Z,-3.10
2022-12-11T03:40:02.561Z,-3.20
2022-12-11T03:42:29.769Z,-3.20
2022-12-11T03:44:59.961Z,-3.20
2022-12-11T03:47:28.853Z,-3.30
2022-12-11T03:49:58.699Z,-3.30
2022-12-11T03:52:27.471Z,-3.30
2022-12-11T03:54:58.078Z,-3.30
2022-12-11T03:57:30.555Z,-3.30
2022-12-11T03:59:58.183Z,-3.30
2022-12-11T04:02:25.230Z,-3.40
2022-12-11T04:04:52.445Z,-3.30
2022-12-11T04:07:19.391Z,-3.20
2022-12-11T04:09:46.407Z,-3.30
2022-12-11T04:12:13.345Z,-3.20
2022-12-11T04:14:58.887Z,-3.20
2022-12-11T04:17:44.442Z,-3.30
2022-12-11T04:20:30.288Z,-3.30
2022-12-11T04:23:15.779Z,-3.30
2022-12-11T04:25:42.757Z,-3.40
2022-12-11T04:28:09.624Z,-3.30
2022-12-11T04:30:36.481Z,-3.40
2022-12-11T04:33:03.981Z,-3.20
2022-12-11T04:35:30.850Z,-3.30
2022-12-11T04:37:58.642Z,-3.30
2022-12-11T04:40:25.666Z,-3.30
2022-12-11T04:42:52.625Z,-3.30
2022-12-11T04:45:19.636Z,-3.30
2022-12-11T04:47:46.561Z,-3.30
2022-12-11T04:50:15.430Z,-3.30
2022-12-11T04:52:42.909Z,-3.30
2022-12-11T04:55:11.338Z,-3.30
2022-12-11T04:57:38.989Z,-3.30
2022-12-11T05:00:11.252Z,-3.30
2022-12-11T05:02:40.001Z,-3.30
2022-12-11T05:05:12.392Z,-3.30
2022-12-11T05:07:39.607Z,-3.30
2022-12-11T05:10:07.492Z,-3.30
2022-12-11T05:12:34.409Z,-3.30
2022-12-11T05:15:01.344Z,-3.30
2022-12-11T05:17:28.183Z,-3.30
2022-12-11T05:19:55.115Z,-3.30
2022-12-11T05:22:22.104Z,-3.30
2022-12-11T05:24:48.949Z,-3.30
2022-12-11T05:27:15.880Z,-3.30
2022-12-11T05:29:42.813Z,-3.30
2022-12-11T05:32:09.779Z,-3.30
2022-12-11T05:34:36.696Z,-3.30
2022-12-11T05:37:03.602Z,-3.20
2022-12-11T05:39:30.569Z,-3.20
2022-12-11T05:41:57.525Z,-3.30
2022-12-11T05:44:24.547Z,-3.30
2022-12-11T05:46:51.455Z,-3.30
2022-12-11T05:49:20.059Z,-3.30
2022-12-11T05:51:47.577Z,-3.20
2022-12-11T05:54:14.844Z,-3.20
2022-12-11T05:56:41.815Z,-3.20
2022-12-11T05:59:09.138Z,-3.20
2022-12-11T06:01:42.169Z,-3.30
2022-12-11T06:04:11.390Z,-3.30
2022-12-11T06:06:38.623Z,-3.30
2022-12-11T06:09:06.657Z,-3.20
2022-12-11T06:11:34.549Z,-3.20
2022-12-11T06:14:03.145Z,-3.20
2022-12-11T06:16:30.090Z,-3.20
2022-12-11T06:18:58.396Z,-3.20
2022-12-11T06:21:27.972Z,-3.20
2022-12-11T06:23:56.966Z,-3.20
2022-12-11T06:26:24.301Z,-3.20
2022-12-11T06:28:51.690Z,-3.20
2022-12-11T06:31:19.247Z,-3.20
2022-12-11T06:33:46.553Z,-3.10
2022-12-11T06:36:16.645Z,-3.10
2022-12-11T06:38:43.928Z,-3.00
2022-12-11T06:41:12.867Z,-3.10
2022-12-11T06:43:41.046Z,-3.10
2022-12-11T06:46:13.591Z,-3.00
2022-12-11T06:48:42.385Z,-3.10
2022-12-11T06:51:15.168Z,-3.10
2022-12-11T06:53:42.804Z,-3.10
2022-12-11T06:56:13.451Z,-3.00
2022-12-11T06:58:41.242Z,-3.00
2022-12-11T07:01:15.162Z,-2.90
2022-12-11T07:03:42.170Z,-3.00
2022-12-11T07:06:09.307Z,-3.10
2022-12-11T07:08:36.389Z,-3.10
2022-12-11T07:11:05.188Z,-3.10
2022-12-11T07:13:32.229Z,-3.10
2022-12-11T07:16:00.581Z,-3.10
2022-12-11T07:18:28.269Z,-3.10
2022-12-11T07:20:55.124Z,-3.00
2022-12-11T07:23:22.018Z,-3.00
2022-12-11T07:25:48.905Z,-3.00
2022-12-11T07:28:16.921Z,-3.00
2022-12-11T07:30:43.927Z,-3.10
2022-12-11T07:33:10.813Z,-3.00
2022-12-11T07:35:38.278Z,-3.00
2022-12-11T07:38:05.146Z,-3.00
2022-12-11T07:40:33.176Z,-3.00
2022-12-11T07:43:00.074Z,-3.00
2022-12-11T07:45:27.085Z,-3.00
2022-12-11T07:47:53.992Z,-3.00
2022-12-11T07:50:20.928Z,-3.00
2022-12-11T07:52:47.868Z,-3.00
2022-12-11T07:55:14.900Z,-3.00
2022-12-11T07:57:41.842Z,-3.00
2022-12-11T08:00:10.639Z,-3.00
2022-12-11T08:02:37.969Z,-3.00
2022-12-11T08:05:05.708Z,-3.00
2022-12-11T08:07:36.217Z,-2.90
2022-12-11T08:10:04.849Z,-2.90
2022-12-11T08:12:32.811Z,-2.90
2022-12-11T08:15:03.802Z,-2.80
2022-12-11T08:17:35.173Z,-2.80
2022-12-11T08:20:05.719Z,-2.80
2022-12-11T08:22:32.607Z,-2.80
2022-12-11T08:24:59.494Z,-2.70
2022-12-11T08:27:26.830Z,-2.70
2022-12-11T08:29:53.761Z,-2.70
2022-12-11T08:32:20.800Z,-2.70
2022-12-11T08:34:47.734Z,-2.70
2022-12-11T08:37:14.608Z,-2.70
2022-12-11T08:39:43.427Z,-2.70
2022-12-11T08:42:10.384Z,-2.70
2022-12-11T08:44:37.368Z,-2.70
2022-12-11T08:47:04.391Z,-2.60
2022-12-11T08:49:34.388Z,-2.60
2022-12-11T08:52:03.662Z,-2.50
2022-12-11T08:54:31.070Z,-2.60
2022-12-11T08:56:58.421Z,-2.40
2022-12-11T08:59:27.065Z,-2.40
2022-12-11T09:01:55.788Z,-2.40
2022-12-11T09:04:23.202Z,-2.40
2022-12-11T09:06:50.269Z,-2.40
2022-12-11T09:09:17.205Z,-2.50
2022-12-11T09:11:44.094Z,-2.50
2022-12-11T09:14:11.040Z,-2.50
2022-12-11T09:16:40.729Z,-2.40
2022-12-11T09:19:09.053Z,-2.30
2022-12-11T09:21:35.999Z,-2.30
2022-12-11T09:24:02.945Z,-2.30
2022-12-11T09:26:30.917Z,-2.30
2022-12-11T09:28:58.401Z,-2.30
2022-12-11T09:31:31.460Z,-2.20
2022-12-11T09:34:01.862Z,-2.30
2022-12-11T09:36:29.660Z,-2.40
2022-12-11T09:39:00.177Z,-2.40
2022-12-11T09:41:45.718Z,-2.30
2022-12-11T09:44:38.081Z,-2.20
2022-12-11T09:47:22.129Z,-2.20
2022-12-11T09:49:56.567Z,-2.20
2022-12-11T09:52:37.599Z,-2.20
2022-12-11T09:55:15.822Z,-2.10
2022-12-11T09:57:52.879Z,-2.10
2022-12-11T10:00:39.674Z,-2.10
2022-12-11T10:03:36.805Z,-2.20
2022-12-11T10:06:14.513Z,-2.20
2022-12-11T10:08:50.788Z,-2.10
2022-12-11T10:11:20.734Z,-2.20
2022-12-11T10:13:59.134Z,-2.20
2022-12-11T10:16:34.899Z,-2.20
2022-12-11T10:19:02.181Z,-2.10
2022-12-11T10:21:36.698Z,-2.20
2022-12-11T10:24:05.923Z,-2.20
2022-12-11T10:26:32.813Z,-2.20
2022-12-11T10:29:01.220Z,-2.10
2022-12-11T10:31:30.959Z,-2.10
2022-12-11T10:34:03.371Z,-2.10
2022-12-11T10:36:36.627Z,-2.20
2022-12-11T10:39:04.350Z,-2.20
2022-12-11T10:41:39.309Z,-2.10
2022-12-11T10:44:19.743Z,-2.10
2022-12-11T10:46:48.411Z,-2.10
2022-12-11T10:49:24.345Z,-2.10
2022-12-11T10:51:53.284Z,-2.00
2022-12-11T10:54:40.358Z,-2.10
2022-12-11T10:57:10.202Z,-2.10
2022-12-11T10:59:48.996Z,-2.10
2022-12-11T11:02:40.320Z,-2.10
2022-12-11T11:05:17.373Z,-2.10
2022-12-11T11:07:44.357Z,-2.20
2022-12-11T11:10:11.292Z,-2.20
2022-12-11T11:12:39.636Z,-2.20
2022-12-11T11:15:12.420Z,-2.10
2022-12-11T11:17:55.099Z,-2.20
2022-12-11T11:20:29.206Z,-2.10
2022-12-11T11:23:05.059Z,-2.20
2022-12-11T11:25:33.772Z,-2.10
2022-12-11T11:28:02.767Z,-2.20
2022-12-11T11:30:41.144Z,-2.20
2022-12-11T11:33:17.750Z,-2.20
2022-12-11T11:35:59.430Z,-2.30
2022-12-11T11:38:41.341Z,-2.30
2022-12-11T11:41:35.697Z,-2.30
2022-12-11T11:44:07.267Z,-2.30
2022-12-11T11:46:46.225Z,-2.30
2022-12-11T11:49:19.013Z,-2.40
2022-12-11T11:51:52.165Z,-2.40
2022-12-11T11:54:31.561Z,-2.50
2022-12-11T11:57:04.034Z,-2.50
2022-12-11T11:59:33.670Z,-2.50
2022-12-11T12:02:00.713Z,-2.50
2022-12-11T12:04:35.045Z,-2.40
2022-12-11T12:07:40.657Z,-2.50
2022-12-11T12:10:16.341Z,-2.50
2022-12-11T12:12:46.399Z,-2.50
2022-12-11T12:15:39.129Z,-2.50
2022-12-11T12:18:15.834Z,-2.50
2022-12-11T12:20:58.530Z,-2.50
2022-12-11T12:23:40.834Z,-2.50
2022-12-11T12:26:19.808Z,-2.50
2022-12-11T12:29:02.989Z,-2.50
2022-12-11T12:31:36.087Z,-2.60
2022-12-11T12:34:44.266Z,-2.60
2022-12-11T12:37:36.258Z,-2.60
2022-12-11T12:40:34.917Z,-2.60
2022-12-11T12:43:23.762Z,-2.50
2022-12-11T12:46:16.322Z,-2.60
2022-12-11T12:48:44.077Z,-2.70
2022-12-11T12:51:15.100Z,-2.70
2022-12-11T12:53:49.918Z,-2.70
2022-12-11T12:56:17.435Z,-2.70
2022-12-11T12:58:46.488Z,-2.70
2022-12-11T13:01:13.446Z,-2.70
2022-12-11T13:04:54.445Z,-2.70
2022-12-11T13:07:23.307Z,-2.70
2022-12-11T13:10:28.113Z,-2.80
2022-12-11T13:12:55.348Z,-2.80
2022-12-11T13:15:41.798Z,-2.80
2022-12-11T13:18:32.459Z,-2.80
2022-12-11T13:20:59.609Z,-2.80
2022-12-11T13:23:32.869Z,-2.80
2022-12-11T13:26:02.139Z,-2.80
2022-12-11T13:28:39.961Z,-2.80
2022-12-11T13:31:16.349Z,-2.80
2022-12-11T13:33:53.422Z,-2.80
2022-12-11T13:36:24.332Z,-2.80
2022-12-11T13:39:19.548Z,-2.90
2022-12-11T13:41:53.590Z,-2.80
2022-12-11T13:44:27.281Z,-2.90
2022-12-11T13:46:57.192Z,-2.90
2022-12-11T13:49:28.830Z,-2.90
2022-12-11T13:52:00.679Z,-3.00
2022-12-11T13:54:29.370Z,-2.90
2022-12-11T13:57:00.864Z,-2.90
2022-12-11T13:59:33.796Z,-3.00
2022-12-11T14:02:06.312Z,-3.00
2022-12-11T14:04:34.608Z,-3.00
2022-12-11T14:07:02.126Z,-3.10
2022-12-11T14:09:29.585Z,-3.10
2022-12-11T14:11:57.739Z,-3.00
2022-12-11T14:14:47.856Z,-3.10
2022-12-11T14:17:18.136Z,-3.10
2022-12-11T14:19:48.750Z,-3.10
2022-12-11T14:22:21.733Z,-3.20
2022-12-11T14:24:51.171Z,-3.10
2022-12-11T14:27:19.169Z,-3.20
2022-12-11T14:29:47.172Z,-3.20
2022-12-11T14:32:31.184Z,-3.20
2022-12-11T14:34:58.984Z,-3.20
2022-12-11T14:37:28.628Z,-3.20
2022-12-11T14:40:07.367Z,-3.20
2022-12-11T14:42:49.817Z,-3.20
2022-12-11T14:45:36.465Z,-3.20
2022-12-11T14:48:09.895Z,-3.20
2022-12-11T14:50:43.852Z,-3.30
2022-12-11T14:53:15.921Z,-3.20
2022-12-11T14:55:43.654Z,-3.30
2022-12-11T14:58:19.216Z,-3.20
2022-12-11T15:01:01.027Z,-3.20
2022-12-11T15:03:46.038Z,-3.20
2022-12-11T15:06:26.331Z,-3.30
2022-12-11T15:08:54.397Z,-3.30
2022-12-11T15:11:22.466Z,-3.30
2022-12-11T15:13:57.742Z,-3.30
2022-12-11T15:16:27.026Z,-3.30
2022-12-11T15:18:56.061Z,-3.30
2022-12-11T15:21:35.677Z,-3.30
2022-12-11T15:24:05.099Z,-3.30
2022-12-11T15:26:48.428Z,-3.40
2022-12-11T15:29:33.611Z,-3.40
2022-12-11T15:32:05.062Z,-3.40
2022-12-11T15:34:33.952Z,-3.40
2022-12-11T15:37:01.137Z,-3.40
2022-12-11T15:39:28.060Z,-3.40
2022-12-11T15:41:54.949Z,-3.40
2022-12-11T15:44:23.735Z,-3.40
2022-12-11T15:46:50.926Z,-3.40
2022-12-11T15:49:19.113Z,-3.40
2022-12-11T15:51:46.485Z,-3.40
2022-12-11T15:54:13.359Z,-3.40
2022-12-11T15:56:40.295Z,-3.40
2022-12-11T15:59:07.262Z,-3.40
2022-12-11T16:01:34.925Z,-3.50
2022-12-11T16:04:05.212Z,-3.40
2022-12-11T16:06:33.268Z,-3.40
2022-12-11T16:09:00.116Z,-3.40
2022-12-11T16:11:27.107Z,-3.40
2022-12-11T16:13:53.977Z,-3.40
2022-12-11T16:16:21.007Z,-3.40
2022-12-11T16:18:47.935Z,-3.40
2022-12-11T16:21:19.887Z,-3.40
2022-12-11T16:23:48.396Z,-3.40
2022-12-11T16:26:15.891Z,-3.40
2022-12-11T16:28:45.625Z,-3.40
2022-12-11T16:31:17.269Z,-3.40
2022-12-11T16:33:45.560Z,-3.40
2022-12-11T16:36:18.296Z,-3.40
2022-12-11T16:38:51.590Z,-3.40
2022-12-11T16:41:26.006Z,-3.30
2022-12-11T16:43:54.762Z,-3.40
2022-12-11T16:46:23.095Z,-3.40
2022-12-11T16:48:51.448Z,-3.40
2022-12-11T16:51:18.515Z,-3.40
2022-12-11T16:53:47.185Z,-3.40
2022-12-11T16:56:15.642Z,-3.40
2022-12-11T16:58:42.721Z,-3.40
2022-12-11T17:01:14.186Z,-3.40
2022-12-11T17:03:43.269Z,-3.40
2022-12-11T17:06:14.443Z,-3.30
2022-12-11T17:08:43.356Z,-3.40
2022-12-11T17:11:20.382Z,-3.40
2022-12-11T17:13:47.806Z,-3.40
2022-12-11T17:16:16.835Z,-3.40
2022-12-11T17:18:48.040Z,-3.40
2022-12-11T17:21:18.901Z,-3.40
2022-12-11T17:23:49.799Z,-3.40
2022-12-11T17:26:17.388Z,-3.40
2022-12-11T17:28:44.604Z,-3.30
2022-12-11T17:31:18.335Z,-3.40
2022-12-11T17:33:46.616Z,-3.40
2022-12-11T17:36:20.013Z,-3.40
2022-12-11T17:38:47.136Z,-3.40
2022-12-11T17:41:20.466Z,-3.40
2022-12-11T17:43:51.446Z,-3.40
2022-12-11T17:46:19.699Z,-3.40
2022-12-11T17:48:47.151Z,-3.40
2022-12-11T17:51:24.629Z,-3.40
2022-12-11T17:53:55.452Z,-3.40
2022-12-11T17:56:25.526Z,-3.40
2022-12-11T17:58:52.813Z,-3.40
2022-12-11T18:01:20.259Z,-3.40
2022-12-11T18:03:47.793Z,-3.50
2022-12-11T18:06:15.968Z,-3.40
2022-12-11T18:08:45.764Z,-3.40
2022-12-11T18:11:16.724Z,-3.40
2022-12-11T18:13:45.339Z,-3.40
2022-12-11T18:16:17.879Z,-3.40
2022-12-11T18:18:46.416Z,-3.40
2022-12-11T18:21:15.921Z,-3.40
2022-12-11T18:23:42.965Z,-3.40
2022-12-11T18:26:11.402Z,-3.40
2022-12-11T18:28:39.741Z,-3.50
2022-12-11T18:31:07.914Z,-3.40
2022-12-11T18:33:37.818Z,-3.50
2022-12-11T18:36:05.452Z,-3.40
2022-12-11T18:38:32.626Z,-3.50
2022-12-11T18:41:03.053Z,-3.40
2022-12-11T18:43:30.196Z,-3.40
2022-12-11T18:45:57.140Z,-3.40
2022-12-11T18:48:24.154Z,-3.50
2022-12-11T18:50:52.381Z,-3.50
2022-12-11T18:53:19.629Z,-3.50
2022-12-11T18:55:49.581Z,-3.50
2022-12-11T18:58:18.415Z,-3.40
2022-12-11T19:00:46.029Z,-3.50
2022-12-11T19:03:15.819Z,-3.50
2022-12-11T19:05:43.974Z,-3.50
2022-12-11T19:08:14.818Z,-3.60
2022-12-11T19:10:46.694Z,-3.50
2022-12-11T19:13:14.653Z,-3.50
2022-12-11T19:15:43.112Z,-3.50
2022-12-11T19:18:11.734Z,-3.50
2022-12-11T19:20:48.888Z,-3.50
2022-12-11T19:23:16.409Z,-3.50
2022-12-11T19:25:45.383Z,-3.50
2022-12-11T19:28:12.991Z,-3.50
2022-12-11T19:30:47.944Z,-3.50
2022-12-11T19:33:16.007Z,-3.50
2022-12-11T19:35:43.805Z,-3.50
2022-12-11T19:38:12.819Z,-3.50
2022-12-11T19:40:44.564Z,-3.40
2022-12-11T19:43:11.712Z,-3.50
2022-12-11T19:45:39.166Z,-3.50
2022-12-11T19:48:06.746Z,-3.50
2022-12-11T19:50:36.466Z,-3.50
2022-12-11T19:53:05.879Z,-3.50
2022-12-11T19:55:33.030Z,-3.50
2022-12-11T19:58:01.469Z,-3.50
2022-12-11T20:00:28.646Z,-3.50
2022-12-11T20:02:55.642Z,-3.60
2022-12-11T20:05:22.662Z,-3.50
2022-12-11T20:07:50.764Z,-3.60
2022-12-11T20:10:17.758Z,-3.60
2022-12-11T20:12:44.680Z,-3.60
2022-12-11T20:15:14.191Z,-3.50
2022-12-11T20:17:45.824Z,-3.50
2022-12-11T20:20:12.787Z,-3.50
2022-12-11T20:22:40.036Z,-3.50
2022-12-11T20:25:07.606Z,-3.50
2022-12-11T20:27:34.806Z,-3.50
2022-12-11T20:30:01.790Z,-3.60
2022-12-11T20:32:30.786Z,-3.60
2022-12-11T20:34:58.592Z,-3.60
2022-12-11T20:37:27.280Z,-3.60
2022-12-11T20:39:55.557Z,-3.60
2022-12-11T20:42:22.854Z,-3.60
2022-12-11T20:44:52.382Z,-3.60
2022-12-11T20:47:21.579Z,-3.60
2022-12-11T20:49:50.361Z,-3.60
2022-12-11T20:52:18.152Z,-3.60
2022-12-11T20:54:45.342Z,-3.60
2022-12-11T20:57:15.352Z,-3.60
2022-12-11T20:59:43.490Z,-3.60
2022-12-11T21:02:12.110Z,-3.60
2022-12-11T21:04:41.934Z,-3.60
2022-12-11T21:07:10.131Z,-3.60
2022-12-11T21:09:38.226Z,-3.60
2022-12-11T21:12:07.545Z,-3.60
2022-12-11T21:14:35.887Z,-3.60
2022-12-11T21:17:04.143Z,-3.60
2022-12-11T21:19:32.899Z,-3.60
2022-12-11T21:22:00.652Z,-3.60
2022-12-11T21:24:32.902Z,-3.60
2022-12-11T21:27:01.762Z,-3.60
2022-12-11T21:29:30.902Z,-3.60
2022-12-11T21:31:58.240Z,-3.60
2022-12-11T21:34:25.918Z,-3.60
2022-12-11T21:36:56.749Z,-3.50
2022-12-11T21:39:25.711Z,-3.60
2022-12-11T21:41:52.935Z,-3.60
2022-12-11T21:47:06.723Z,-3.60
2022-12-11T21:49:33.785Z,-3.60
2022-12-11T21:52:00.696Z,-3.60
2022-12-11T21:54:27.585Z,-3.60
2022-12-11T21:56:54.708Z,-3.60
2022-12-11T21:59:21.768Z,-3.60
2022-12-11T22:01:48.737Z,-3.50
2022-12-11T22:04:16.439Z,-3.60
2022-12-11T22:06:43.809Z,-3.50
2022-12-11T22:09:13.118Z,-3.60
2022-12-11T22:11:41.033Z,-3.60
2022-12-11T22:14:08.908Z,-3.50
2022-12-11T22:16:35.934Z,-3.50
2022-12-11T22:19:02.873Z,-3.50
2022-12-11T22:21:29.969Z,-3.50
2022-12-11T22:23:58.960Z,-3.50
2022-12-11T22:26:27.253Z,-3.50
2022-12-11T22:28:54.917Z,-3.50
2022-12-11T22:31:25.095Z,-3.50
2022-12-11T22:33:56.128Z,-3.50
2022-12-11T22:36:25.251Z,-3.50
2022-12-11T22:38:52.164Z,-3.50
2022-12-11T22:41:24.833Z,-3.50
2022-12-11T22:43:52.577Z,-3.50
2022-12-11T22:46:22.139Z,-3.50
2022-12-11T22:48:51.017Z,-3.50
2022-12-11T22:51:18.105Z,-3.50
2022-12-11T22:53:45.133Z,-3.40
2022-12-11T22:56:13.458Z,-3.40
2022-12-11T22:58:40.770Z,-3.40
2022-12-11T23:01:16.797Z,-3.40
2022-12-11T23:03:44.011Z,-3.40
2022-12-11T23:06:15.228Z,-3.40
2022-12-11T23:08:43.009Z,-3.40
2022-12-11T23:11:16.128Z,-3.40
2022-12-11T23:13:43.536Z,-3.40
2022-12-11T23:16:11.635Z,-3.40
2022-12-11T23:18:38.886Z,-3.40
2022-12-11T23:21:06.841Z,-3.30
2022-12-11T23:23:33.751Z,-3.30
2022-12-11T23:26:00.895Z,-3.30
2022-12-11T23:28:27.792Z,-3.30
2022-12-11T23:30:55.142Z,-3.30
2022-12-11T23:33:22.182Z,-3.30
2022-12-11T23:35:49.138Z,-3.30
2022-12-11T23:38:17.048Z,-3.20
2022-12-11T23:40:44.150Z,-3.20
2022-12-11T23:43:11.068Z,-3.20
2022-12-11T23:45:38.068Z,-3.20
2022-12-11T23:48:04.968Z,-3.20
2022-12-11T23:50:33.046Z,-3.20
2022-12-11T23:53:00.375Z,-3.20
2022-12-11T23:55:27.714Z,-3.20
2022-12-11T23:57:55.033Z,-3.20
